Main page
METAR-TAF:

METAR-TAF

Airports :

Cranwell, England

RAF Cranwell

latitude: 53-02N, longitude: 000-30W, elevation: 67 m

Current weather observation

The report was made 39 minutes ago, at 01:50 UTC
Wind 9 kt from the West
Temperature -1°C
Humidity 93%
Pressure 1022 hPa
Visibility: 7000 m

METAR: EGYD 170150Z AUTO 27009KT 7000 // NCD M01/M02 Q1022

Time: 02:29 (02:29 UTC)

Forecast

The report was made 12 hours and 57 minutes ago, at 13:32 UTC
Forecast valid from 16 at 15 UTC to 16 at 18 UTC
Wind 12 kt from the West
Visibility 10 km or more
Few clouds at a height of 4000 ft

TAF: EGYD 161332Z 1615/1618 27012KT 9999 FEW040

Weather observations and forecasts of more than 4000 airports (METAR and TAF reports).

The available stations are represented by yellow and red dots on the map.

Hover mouse over dot to see the name of the station.

Then click to see weather observations and forecasts.

To change the map : click on the green buttons with a black cross to zoom in, on the green button with a dash to zoom out, or on the green arrows for adjacent maps.


METAR-TAF: